sensor_id;sensor_type;location;lat;lon;timestamp;P1;durP1;ratioP1;P2;durP2;ratioP2
74233;SDS011;62591;55.764;37.718;2023-02-02T00:00:59;26.90;;;12.38;;
74233;SDS011;62591;55.764;37.718;2023-02-02T00:03:28;27.33;;;12.65;;
74233;SDS011;62591;55.764;37.718;2023-02-02T00:05:58;27.52;;;12.02;;
74233;SDS011;62591;55.764;37.718;2023-02-02T00:08:28;27.92;;;12.10;;
74233;SDS011;62591;55.764;37.718;2023-02-02T00:10:56;30.65;;;13.63;;
74233;SDS011;62591;55.764;37.718;2023-02-02T00:13:25;27.77;;;13.48;;
74233;SDS011;62591;55.764;37.718;2023-02-02T00:15:57;26.92;;;12.05;;
74233;SDS011;62591;55.764;37.718;2023-02-02T00:18:27;29.52;;;12.70;;
74233;SDS011;62591;55.764;37.718;2023-02-02T00:20:56;26.88;;;12.63;;
74233;SDS011;62591;55.764;37.718;2023-02-02T00:23:32;27.40;;;12.57;;
74233;SDS011;62591;55.764;37.718;2023-02-02T00:26:00;30.00;;;12.70;;
74233;SDS011;62591;55.764;37.718;2023-02-02T00:28:30;25.35;;;12.40;;
74233;SDS011;62591;55.764;37.718;2023-02-02T00:31:00;26.83;;;12.57;;
74233;SDS011;62591;55.764;37.718;2023-02-02T00:33:29;25.35;;;12.35;;
74233;SDS011;62591;55.764;37.718;2023-02-02T00:35:57;26.40;;;13.15;;
74233;SDS011;62591;55.764;37.718;2023-02-02T00:38:26;28.70;;;13.50;;
74233;SDS011;62591;55.764;37.718;2023-02-02T00:40:55;25.02;;;12.15;;
74233;SDS011;62591;55.764;37.718;2023-02-02T00:43:26;27.98;;;12.90;;
74233;SDS011;62591;55.764;37.718;2023-02-02T00:45:54;29.20;;;12.68;;
74233;SDS011;62591;55.764;37.718;2023-02-02T00:50:55;28.20;;;12.90;;
74233;SDS011;62591;55.764;37.718;2023-02-02T00:53:24;26.83;;;13.13;;
74233;SDS011;62591;55.764;37.718;2023-02-02T00:55:54;25.38;;;12.15;;
74233;SDS011;62591;55.764;37.718;2023-02-02T00:58:23;26.95;;;12.93;;
74233;SDS011;62591;55.764;37.718;2023-02-02T01:00:52;23.50;;;10.95;;
74233;SDS011;62591;55.764;37.718;2023-02-02T01:03:20;21.48;;;10.98;;
74233;SDS011;62591;55.764;37.718;2023-02-02T01:05:50;24.05;;;11.77;;
74233;SDS011;62591;55.764;37.718;2023-02-02T01:08:19;23.95;;;11.05;;
74233;SDS011;62591;55.764;37.718;2023-02-02T01:10:47;23.92;;;11.35;;
74233;SDS011;62591;55.764;37.718;2023-02-02T01:13:16;21.05;;;10.40;;
74233;SDS011;62591;55.764;37.718;2023-02-02T01:15:44;23.02;;;11.55;;
74233;SDS011;62591;55.764;37.718;2023-02-02T01:18:13;23.50;;;11.23;;
74233;SDS011;62591;55.764;37.718;2023-02-02T01:20:42;22.88;;;10.57;;
74233;SDS011;62591;55.764;37.718;2023-02-02T01:23:11;21.00;;;10.60;;
74233;SDS011;62591;55.764;37.718;2023-02-02T01:25:41;18.33;;;8.57;;
74233;SDS011;62591;55.764;37.718;2023-02-02T01:28:11;18.88;;;9.05;;
74233;SDS011;62591;55.764;37.718;2023-02-02T01:30:41;20.63;;;10.13;;
74233;SDS011;62591;55.764;37.718;2023-02-02T01:33:10;18.45;;;9.00;;
74233;SDS011;62591;55.764;37.718;2023-02-02T01:35:43;19.38;;;9.40;;
74233;SDS011;62591;55.764;37.718;2023-02-02T01:38:14;17.55;;;8.25;;
74233;SDS011;62591;55.764;37.718;2023-02-02T01:40:43;20.02;;;9.20;;
74233;SDS011;62591;55.764;37.718;2023-02-02T01:43:18;20.10;;;9.07;;
74233;SDS011;62591;55.764;37.718;2023-02-02T01:45:52;18.30;;;8.70;;
74233;SDS011;62591;55.764;37.718;2023-02-02T01:48:23;20.80;;;10.05;;
74233;SDS011;62591;55.764;37.718;2023-02-02T01:50:57;20.40;;;9.80;;
74233;SDS011;62591;55.764;37.718;2023-02-02T01:53:31;20.27;;;9.68;;
74233;SDS011;62591;55.764;37.718;2023-02-02T01:56:04;20.75;;;10.07;;
74233;SDS011;62591;55.764;37.718;2023-02-02T01:58:37;24.55;;;11.65;;
74233;SDS011;62591;55.764;37.718;2023-02-02T02:01:08;22.23;;;11.80;;
74233;SDS011;62591;55.764;37.718;2023-02-02T02:03:38;26.05;;;12.30;;
74233;SDS011;62591;55.764;37.718;2023-02-02T02:06:08;25.85;;;12.32;;
74233;SDS011;62591;55.764;37.718;2023-02-02T02:08:43;24.70;;;12.27;;
74233;SDS011;62591;55.764;37.718;2023-02-02T02:11:18;27.27;;;12.48;;
74233;SDS011;62591;55.764;37.718;2023-02-02T02:13:48;24.15;;;12.57;;
74233;SDS011;62591;55.764;37.718;2023-02-02T02:16:59;23.20;;;11.82;;
74233;SDS011;62591;55.764;37.718;2023-02-02T02:19:47;26.25;;;12.27;;
74233;SDS011;62591;55.764;37.718;2023-02-02T02:23:01;28.98;;;12.60;;
74233;SDS011;62591;55.764;37.718;2023-02-02T02:26:31;29.13;;;12.68;;
74233;SDS011;62591;55.764;37.718;2023-02-02T02:29:27;25.60;;;12.60;;
74233;SDS011;62591;55.764;37.718;2023-02-02T02:32:27;32.50;;;15.13;;
74233;SDS011;62591;55.764;37.718;2023-02-02T02:35:05;26.10;;;12.40;;
74233;SDS011;62591;55.764;37.718;2023-02-02T02:37:43;27.00;;;11.23;;
74233;SDS011;62591;55.764;37.718;2023-02-02T02:40:19;28.42;;;12.70;;
74233;SDS011;62591;55.764;37.718;2023-02-02T02:42:54;26.42;;;12.13;;
74233;SDS011;62591;55.764;37.718;2023-02-02T02:45:28;27.17;;;11.73;;
74233;SDS011;62591;55.764;37.718;2023-02-02T02:48:01;25.20;;;12.23;;
74233;SDS011;62591;55.764;37.718;2023-02-02T02:50:30;25.63;;;11.57;;
74233;SDS011;62591;55.764;37.718;2023-02-02T02:53:01;27.88;;;11.52;;
74233;SDS011;62591;55.764;37.718;2023-02-02T02:55:35;24.95;;;11.23;;
74233;SDS011;62591;55.764;37.718;2023-02-02T02:58:15;24.80;;;11.45;;
74233;SDS011;62591;55.764;37.718;2023-02-02T03:00:54;26.45;;;12.02;;
74233;SDS011;62591;55.764;37.718;2023-02-02T03:03:37;25.60;;;10.65;;
74233;SDS011;62591;55.764;37.718;2023-02-02T03:06:19;22.67;;;10.82;;
74233;SDS011;62591;55.764;37.718;2023-02-02T03:08:54;22.88;;;10.13;;
74233;SDS011;62591;55.764;37.718;2023-02-02T03:11:27;21.70;;;9.50;;
74233;SDS011;62591;55.764;37.718;2023-02-02T03:13:59;24.15;;;11.68;;
74233;SDS011;62591;55.764;37.718;2023-02-02T03:16:29;21.42;;;10.43;;
74233;SDS011;62591;55.764;37.718;2023-02-02T03:18:59;24.35;;;11.05;;
74233;SDS011;62591;55.764;37.718;2023-02-02T03:21:28;21.35;;;10.38;;
74233;SDS011;62591;55.764;37.718;2023-02-02T03:23:56;20.83;;;9.82;;
74233;SDS011;62591;55.764;37.718;2023-02-02T03:26:25;22.45;;;10.30;;
74233;SDS011;62591;55.764;37.718;2023-02-02T03:28:57;21.05;;;9.77;;
74233;SDS011;62591;55.764;37.718;2023-02-02T03:31:25;20.75;;;10.48;;
74233;SDS011;62591;55.764;37.718;2023-02-02T03:33:55;24.10;;;11.25;;
74233;SDS011;62591;55.764;37.718;2023-02-02T03:36:26;25.10;;;12.00;;
74233;SDS011;62591;55.764;37.718;2023-02-02T03:38:55;25.02;;;10.18;;
74233;SDS011;62591;55.764;37.718;2023-02-02T03:41:23;26.27;;;11.77;;
74233;SDS011;62591;55.764;37.718;2023-02-02T03:43:52;25.92;;;11.02;;
74233;SDS011;62591;55.764;37.718;2023-02-02T03:46:24;29.85;;;13.02;;
74233;SDS011;62591;55.764;37.718;2023-02-02T03:48:54;45.63;;;21.48;;
74233;SDS011;62591;55.764;37.718;2023-02-02T03:51:25;31.77;;;17.02;;
74233;SDS011;62591;55.764;37.718;2023-02-02T03:53:54;31.73;;;15.30;;
74233;SDS011;62591;55.764;37.718;2023-02-02T03:56:25;38.20;;;15.77;;
74233;SDS011;62591;55.764;37.718;2023-02-02T03:58:53;29.73;;;12.43;;
74233;SDS011;62591;55.764;37.718;2023-02-02T04:01:25;27.67;;;13.50;;
74233;SDS011;62591;55.764;37.718;2023-02-02T04:03:56;30.52;;;13.32;;
74233;SDS011;62591;55.764;37.718;2023-02-02T04:06:26;28.02;;;12.93;;
74233;SDS011;62591;55.764;37.718;2023-02-02T04:08:55;30.45;;;14.55;;
74233;SDS011;62591;55.764;37.718;2023-02-02T04:11:24;29.35;;;13.27;;
74233;SDS011;62591;55.764;37.718;2023-02-02T04:13:52;31.42;;;13.23;;
74233;SDS011;62591;55.764;37.718;2023-02-02T04:16:21;25.63;;;12.32;;
74233;SDS011;62591;55.764;37.718;2023-02-02T04:18:51;34.17;;;14.70;;
74233;SDS011;62591;55.764;37.718;2023-02-02T04:21:22;29.20;;;13.73;;
74233;SDS011;62591;55.764;37.718;2023-02-02T04:23:52;29.10;;;12.88;;
74233;SDS011;62591;55.764;37.718;2023-02-02T04:26:22;28.77;;;12.48;;
74233;SDS011;62591;55.764;37.718;2023-02-02T04:28:52;29.83;;;13.85;;
74233;SDS011;62591;55.764;37.718;2023-02-02T04:31:22;28.70;;;13.25;;
74233;SDS011;62591;55.764;37.718;2023-02-02T04:33:50;30.08;;;12.85;;
74233;SDS011;62591;55.764;37.718;2023-02-02T04:36:19;26.88;;;12.32;;
74233;SDS011;62591;55.764;37.718;2023-02-02T04:38:48;28.98;;;12.52;;
74233;SDS011;62591;55.764;37.718;2023-02-02T04:41:18;29.38;;;13.60;;
74233;SDS011;62591;55.764;37.718;2023-02-02T04:43:48;33.38;;;13.50;;
74233;SDS011;62591;55.764;37.718;2023-02-02T04:46:17;34.97;;;14.23;;
74233;SDS011;62591;55.764;37.718;2023-02-02T04:48:55;42.13;;;19.98;;
74233;SDS011;62591;55.764;37.718;2023-02-02T04:51:24;31.67;;;14.85;;
74233;SDS011;62591;55.764;37.718;2023-02-02T04:53:53;35.00;;;14.60;;
74233;SDS011;62591;55.764;37.718;2023-02-02T04:56:23;32.85;;;15.52;;
74233;SDS011;62591;55.764;37.718;2023-02-02T04:58:52;29.05;;;13.70;;
74233;SDS011;62591;55.764;37.718;2023-02-02T05:01:22;32.25;;;15.15;;
74233;SDS011;62591;55.764;37.718;2023-02-02T05:03:50;32.75;;;14.45;;
74233;SDS011;62591;55.764;37.718;2023-02-02T05:06:19;29.48;;;13.57;;
74233;SDS011;62591;55.764;37.718;2023-02-02T05:08:48;32.75;;;14.20;;
74233;SDS011;62591;55.764;37.718;2023-02-02T05:11:17;31.00;;;14.52;;
74233;SDS011;62591;55.764;37.718;2023-02-02T05:13:51;29.95;;;15.13;;
74233;SDS011;62591;55.764;37.718;2023-02-02T05:16:24;29.95;;;14.52;;
74233;SDS011;62591;55.764;37.718;2023-02-02T05:18:55;31.60;;;14.18;;
74233;SDS011;62591;55.764;37.718;2023-02-02T05:21:25;37.10;;;18.23;;
74233;SDS011;62591;55.764;37.718;2023-02-02T05:23:54;38.05;;;16.27;;
74233;SDS011;62591;55.764;37.718;2023-02-02T05:26:23;37.30;;;15.50;;
74233;SDS011;62591;55.764;37.718;2023-02-02T05:28:57;31.77;;;14.05;;
74233;SDS011;62591;55.764;37.718;2023-02-02T05:31:26;29.58;;;14.13;;
74233;SDS011;62591;55.764;37.718;2023-02-02T05:33:56;31.58;;;14.65;;
74233;SDS011;62591;55.764;37.718;2023-02-02T05:36:27;33.45;;;15.10;;
74233;SDS011;62591;55.764;37.718;2023-02-02T05:38:56;33.97;;;15.13;;
74233;SDS011;62591;55.764;37.718;2023-02-02T05:41:27;32.22;;;13.82;;
74233;SDS011;62591;55.764;37.718;2023-02-02T05:43:58;29.50;;;13.38;;
74233;SDS011;62591;55.764;37.718;2023-02-02T05:46:27;30.13;;;14.60;;
74233;SDS011;62591;55.764;37.718;2023-02-02T05:48:57;30.70;;;12.88;;
74233;SDS011;62591;55.764;37.718;2023-02-02T05:51:28;32.08;;;13.73;;
74233;SDS011;62591;55.764;37.718;2023-02-02T05:53:58;28.67;;;13.15;;
74233;SDS011;62591;55.764;37.718;2023-02-02T05:56:33;27.48;;;13.05;;
74233;SDS011;62591;55.764;37.718;2023-02-02T05:59:14;30.50;;;12.73;;
74233;SDS011;62591;55.764;37.718;2023-02-02T06:01:43;28.27;;;12.68;;
74233;SDS011;62591;55.764;37.718;2023-02-02T06:04:12;27.90;;;12.10;;
74233;SDS011;62591;55.764;37.718;2023-02-02T06:06:41;29.05;;;13.07;;
74233;SDS011;62591;55.764;37.718;2023-02-02T06:09:09;27.83;;;12.90;;
74233;SDS011;62591;55.764;37.718;2023-02-02T06:11:38;29.85;;;12.93;;
74233;SDS011;62591;55.764;37.718;2023-02-02T06:14:07;28.60;;;12.93;;
74233;SDS011;62591;55.764;37.718;2023-02-02T06:16:37;27.05;;;13.15;;
74233;SDS011;62591;55.764;37.718;2023-02-02T06:19:07;28.73;;;13.27;;
74233;SDS011;62591;55.764;37.718;2023-02-02T06:21:37;34.70;;;13.95;;
74233;SDS011;62591;55.764;37.718;2023-02-02T06:24:05;25.77;;;12.35;;
74233;SDS011;62591;55.764;37.718;2023-02-02T06:26:34;29.60;;;13.43;;
74233;SDS011;62591;55.764;37.718;2023-02-02T06:29:05;29.17;;;13.38;;
74233;SDS011;62591;55.764;37.718;2023-02-02T06:31:39;30.05;;;13.73;;
74233;SDS011;62591;55.764;37.718;2023-02-02T06:34:08;31.83;;;14.15;;
74233;SDS011;62591;55.764;37.718;2023-02-02T06:36:42;29.33;;;13.77;;
74233;SDS011;62591;55.764;37.718;2023-02-02T06:39:11;26.73;;;13.38;;
74233;SDS011;62591;55.764;37.718;2023-02-02T06:41:55;26.55;;;13.65;;
74233;SDS011;62591;55.764;37.718;2023-02-02T06:44:34;29.42;;;12.65;;
74233;SDS011;62591;55.764;37.718;2023-02-02T06:47:05;30.30;;;12.98;;
74233;SDS011;62591;55.764;37.718;2023-02-02T06:49:33;25.25;;;12.07;;
74233;SDS011;62591;55.764;37.718;2023-02-02T06:52:02;26.30;;;13.15;;
74233;SDS011;62591;55.764;37.718;2023-02-02T06:54:30;31.48;;;14.02;;
74233;SDS011;62591;55.764;37.718;2023-02-02T06:56:59;29.25;;;13.13;;
74233;SDS011;62591;55.764;37.718;2023-02-02T06:59:27;25.92;;;12.95;;
74233;SDS011;62591;55.764;37.718;2023-02-02T07:01:56;29.40;;;13.15;;
74233;SDS011;62591;55.764;37.718;2023-02-02T07:04:26;29.10;;;13.18;;
74233;SDS011;62591;55.764;37.718;2023-02-02T07:06:55;27.15;;;13.35;;
74233;SDS011;62591;55.764;37.718;2023-02-02T07:09:24;27.85;;;12.50;;
74233;SDS011;62591;55.764;37.718;2023-02-02T07:11:52;25.70;;;13.07;;
74233;SDS011;62591;55.764;37.718;2023-02-02T07:14:21;26.90;;;13.07;;
74233;SDS011;62591;55.764;37.718;2023-02-02T07:16:52;26.77;;;12.82;;
74233;SDS011;62591;55.764;37.718;2023-02-02T07:19:21;25.13;;;12.52;;
74233;SDS011;62591;55.764;37.718;2023-02-02T07:21:54;24.02;;;12.27;;
74233;SDS011;62591;55.764;37.718;2023-02-02T07:24:22;30.73;;;13.50;;
74233;SDS011;62591;55.764;37.718;2023-02-02T07:26:51;25.95;;;12.57;;
74233;SDS011;62591;55.764;37.718;2023-02-02T07:29:19;27.70;;;12.80;;
74233;SDS011;62591;55.764;37.718;2023-02-02T07:31:50;27.85;;;12.75;;
74233;SDS011;62591;55.764;37.718;2023-02-02T07:34:19;26.35;;;13.05;;
74233;SDS011;62591;55.764;37.718;2023-02-02T07:36:48;26.42;;;12.65;;
74233;SDS011;62591;55.764;37.718;2023-02-02T07:39:23;24.70;;;12.68;;
74233;SDS011;62591;55.764;37.718;2023-02-02T07:41:54;27.38;;;12.40;;
74233;SDS011;62591;55.764;37.718;2023-02-02T07:44:30;27.90;;;12.55;;
74233;SDS011;62591;55.764;37.718;2023-02-02T07:47:00;25.88;;;12.18;;
74233;SDS011;62591;55.764;37.718;2023-02-02T07:49:30;29.65;;;13.90;;
74233;SDS011;62591;55.764;37.718;2023-02-02T07:52:03;25.63;;;12.40;;
74233;SDS011;62591;55.764;37.718;2023-02-02T07:54:34;25.85;;;12.57;;
74233;SDS011;62591;55.764;37.718;2023-02-02T07:57:02;25.15;;;12.63;;
74233;SDS011;62591;55.764;37.718;2023-02-02T07:59:35;25.95;;;12.20;;
74233;SDS011;62591;55.764;37.718;2023-02-02T08:02:04;23.92;;;12.77;;
74233;SDS011;62591;55.764;37.718;2023-02-02T08:04:33;27.05;;;12.55;;
74233;SDS011;62591;55.764;37.718;2023-02-02T08:07:05;38.05;;;18.05;;
74233;SDS011;62591;55.764;37.718;2023-02-02T08:09:33;27.23;;;12.55;;
74233;SDS011;62591;55.764;37.718;2023-02-02T08:12:02;23.17;;;12.75;;
74233;SDS011;62591;55.764;37.718;2023-02-02T08:14:31;26.27;;;13.25;;
74233;SDS011;62591;55.764;37.718;2023-02-02T08:17:01;27.17;;;13.40;;
74233;SDS011;62591;55.764;37.718;2023-02-02T08:19:31;28.60;;;13.40;;
74233;SDS011;62591;55.764;37.718;2023-02-02T08:22:03;29.50;;;13.73;;
74233;SDS011;62591;55.764;37.718;2023-02-02T08:24:32;31.63;;;15.77;;
74233;SDS011;62591;55.764;37.718;2023-02-02T08:29:37;28.02;;;14.27;;
74233;SDS011;62591;55.764;37.718;2023-02-02T08:32:06;31.42;;;13.98;;
74233;SDS011;62591;55.764;37.718;2023-02-02T08:34:35;28.27;;;15.05;;
74233;SDS011;62591;55.764;37.718;2023-02-02T08:37:08;25.58;;;12.95;;
74233;SDS011;62591;55.764;37.718;2023-02-02T08:39:36;26.10;;;12.18;;
74233;SDS011;62591;55.764;37.718;2023-02-02T08:42:05;25.60;;;12.82;;
74233;SDS011;62591;55.764;37.718;2023-02-02T08:44:34;25.67;;;13.40;;
74233;SDS011;62591;55.764;37.718;2023-02-02T08:47:24;25.65;;;11.35;;
74233;SDS011;62591;55.764;37.718;2023-02-02T08:49:56;29.98;;;13.15;;
74233;SDS011;62591;55.764;37.718;2023-02-02T08:52:26;24.52;;;11.80;;
74233;SDS011;62591;55.764;37.718;2023-02-02T08:54:54;29.23;;;13.02;;
74233;SDS011;62591;55.764;37.718;2023-02-02T08:57:23;30.27;;;15.90;;
74233;SDS011;62591;55.764;37.718;2023-02-02T08:59:51;30.48;;;16.90;;
74233;SDS011;62591;55.764;37.718;2023-02-02T09:02:20;33.88;;;17.30;;
74233;SDS011;62591;55.764;37.718;2023-02-02T09:04:49;33.85;;;18.40;;
74233;SDS011;62591;55.764;37.718;2023-02-02T09:07:17;30.98;;;15.73;;
74233;SDS011;62591;55.764;37.718;2023-02-02T09:09:48;25.35;;;13.43;;
74233;SDS011;62591;55.764;37.718;2023-02-02T09:12:18;26.30;;;13.82;;
74233;SDS011;62591;55.764;37.718;2023-02-02T09:14:47;29.00;;;13.00;;
74233;SDS011;62591;55.764;37.718;2023-02-02T09:17:20;27.20;;;12.98;;
74233;SDS011;62591;55.764;37.718;2023-02-02T09:19:49;23.48;;;12.18;;
74233;SDS011;62591;55.764;37.718;2023-02-02T09:22:19;27.20;;;12.85;;
74233;SDS011;62591;55.764;37.718;2023-02-02T09:24:50;25.05;;;12.77;;
74233;SDS011;62591;55.764;37.718;2023-02-02T09:27:19;25.90;;;13.00;;
74233;SDS011;62591;55.764;37.718;2023-02-02T09:29:48;27.13;;;13.18;;
74233;SDS011;62591;55.764;37.718;2023-02-02T09:32:18;28.23;;;13.82;;
74233;SDS011;62591;55.764;37.718;2023-02-02T09:34:47;27.02;;;13.10;;
74233;SDS011;62591;55.764;37.718;2023-02-02T09:37:15;26.63;;;13.15;;
74233;SDS011;62591;55.764;37.718;2023-02-02T09:39:45;36.80;;;18.60;;
74233;SDS011;62591;55.764;37.718;2023-02-02T09:42:21;26.02;;;13.27;;
74233;SDS011;62591;55.764;37.718;2023-02-02T09:45:00;27.35;;;14.30;;
74233;SDS011;62591;55.764;37.718;2023-02-02T09:47:41;26.10;;;12.82;;
74233;SDS011;62591;55.764;37.718;2023-02-02T09:50:37;28.10;;;13.10;;
74233;SDS011;62591;55.764;37.718;2023-02-02T09:53:12;25.13;;;11.80;;
74233;SDS011;62591;55.764;37.718;2023-02-02T09:55:48;25.88;;;12.55;;
74233;SDS011;62591;55.764;37.718;2023-02-02T09:58:27;27.33;;;13.13;;
74233;SDS011;62591;55.764;37.718;2023-02-02T10:01:03;27.77;;;12.52;;
74233;SDS011;62591;55.764;37.718;2023-02-02T10:03:38;23.55;;;11.32;;
74233;SDS011;62591;55.764;37.718;2023-02-02T10:06:15;23.63;;;11.52;;
74233;SDS011;62591;55.764;37.718;2023-02-02T10:08:58;24.63;;;12.15;;
74233;SDS011;62591;55.764;37.718;2023-02-02T10:11:34;22.73;;;12.00;;
74233;SDS011;62591;55.764;37.718;2023-02-02T10:14:10;26.02;;;12.13;;
74233;SDS011;62591;55.764;37.718;2023-02-02T10:16:47;22.92;;;12.38;;
74233;SDS011;62591;55.764;37.718;2023-02-02T10:19:21;25.25;;;12.30;;
74233;SDS011;62591;55.764;37.718;2023-02-02T10:21:58;25.70;;;12.30;;
74233;SDS011;62591;55.764;37.718;2023-02-02T10:24:32;27.15;;;13.02;;
74233;SDS011;62591;55.764;37.718;2023-02-02T10:27:02;27.02;;;13.35;;
74233;SDS011;62591;55.764;37.718;2023-02-02T10:29:37;28.17;;;14.23;;
74233;SDS011;62591;55.764;37.718;2023-02-02T10:32:19;27.08;;;13.85;;
74233;SDS011;62591;55.764;37.718;2023-02-02T10:35:15;30.58;;;14.48;;
74233;SDS011;62591;55.764;37.718;2023-02-02T10:38:01;25.30;;;12.50;;
74233;SDS011;62591;55.764;37.718;2023-02-02T10:40:41;24.40;;;11.52;;
74233;SDS011;62591;55.764;37.718;2023-02-02T10:43:24;25.63;;;12.68;;
74233;SDS011;62591;55.764;37.718;2023-02-02T10:46:20;26.00;;;13.00;;
74233;SDS011;62591;55.764;37.718;2023-02-02T10:48:58;27.45;;;15.38;;
74233;SDS011;62591;55.764;37.718;2023-02-02T10:51:38;27.33;;;13.07;;
74233;SDS011;62591;55.764;37.718;2023-02-02T10:54:16;27.08;;;12.98;;
74233;SDS011;62591;55.764;37.718;2023-02-02T10:56:57;25.02;;;12.23;;
74233;SDS011;62591;55.764;37.718;2023-02-02T10:59:32;29.73;;;13.77;;
74233;SDS011;62591;55.764;37.718;2023-02-02T11:02:09;26.90;;;12.38;;
74233;SDS011;62591;55.764;37.718;2023-02-02T11:04:48;26.98;;;12.52;;
74233;SDS011;62591;55.764;37.718;2023-02-02T11:07:35;23.70;;;11.88;;
74233;SDS011;62591;55.764;37.718;2023-02-02T11:10:07;26.35;;;13.10;;
74233;SDS011;62591;55.764;37.718;2023-02-02T11:12:53;28.17;;;12.82;;
74233;SDS011;62591;55.764;37.718;2023-02-02T11:15:29;23.33;;;11.73;;
74233;SDS011;62591;55.764;37.718;2023-02-02T11:18:12;24.55;;;11.70;;
74233;SDS011;62591;55.764;37.718;2023-02-02T11:20:43;23.48;;;12.57;;
74233;SDS011;62591;55.764;37.718;2023-02-02T11:23:20;26.77;;;13.05;;
74233;SDS011;62591;55.764;37.718;2023-02-02T11:25:58;25.83;;;13.00;;
74233;SDS011;62591;55.764;37.718;2023-02-02T11:28:33;24.63;;;12.15;;
74233;SDS011;62591;55.764;37.718;2023-02-02T11:31:08;25.15;;;12.45;;
74233;SDS011;62591;55.764;37.718;2023-02-02T11:33:41;25.25;;;12.80;;
74233;SDS011;62591;55.764;37.718;2023-02-02T11:36:18;25.15;;;12.55;;
74233;SDS011;62591;55.764;37.718;2023-02-02T11:38:49;25.48;;;12.90;;
74233;SDS011;62591;55.764;37.718;2023-02-02T11:41:43;24.70;;;12.93;;
74233;SDS011;62591;55.764;37.718;2023-02-02T11:44:15;25.40;;;12.38;;
74233;SDS011;62591;55.764;37.718;2023-02-02T11:46:51;23.05;;;11.52;;
74233;SDS011;62591;55.764;37.718;2023-02-02T11:49:24;26.02;;;12.70;;
74233;SDS011;62591;55.764;37.718;2023-02-02T11:51:55;23.48;;;12.75;;
74233;SDS011;62591;55.764;37.718;2023-02-02T11:54:33;22.98;;;12.73;;
74233;SDS011;62591;55.764;37.718;2023-02-02T11:57:06;27.08;;;13.82;;
74233;SDS011;62591;55.764;37.718;2023-02-02T11:59:38;25.45;;;12.75;;
74233;SDS011;62591;55.764;37.718;2023-02-02T12:02:27;29.05;;;13.52;;
74233;SDS011;62591;55.764;37.718;2023-02-02T12:05:25;29.40;;;14.10;;
74233;SDS011;62591;55.764;37.718;2023-02-02T12:08:00;24.77;;;12.38;;
74233;SDS011;62591;55.764;37.718;2023-02-02T12:10:40;26.10;;;12.38;;
74233;SDS011;62591;55.764;37.718;2023-02-02T12:13:21;26.80;;;12.85;;
74233;SDS011;62591;55.764;37.718;2023-02-02T12:16:07;24.83;;;12.73;;
74233;SDS011;62591;55.764;37.718;2023-02-02T12:21:59;24.52;;;12.65;;
74233;SDS011;62591;55.764;37.718;2023-02-02T12:24:38;27.73;;;13.68;;
74233;SDS011;62591;55.764;37.718;2023-02-02T12:27:19;26.58;;;12.50;;
74233;SDS011;62591;55.764;37.718;2023-02-02T12:30:03;29.13;;;13.40;;
74233;SDS011;62591;55.764;37.718;2023-02-02T12:35:59;23.33;;;12.43;;
74233;SDS011;62591;55.764;37.718;2023-02-02T12:41:44;26.83;;;13.45;;
74233;SDS011;62591;55.764;37.718;2023-02-02T12:44:31;28.55;;;13.52;;
74233;SDS011;62591;55.764;37.718;2023-02-02T12:47:12;29.10;;;13.23;;
74233;SDS011;62591;55.764;37.718;2023-02-02T12:49:55;26.65;;;12.55;;
74233;SDS011;62591;55.764;37.718;2023-02-02T12:52:40;26.35;;;13.52;;
74233;SDS011;62591;55.764;37.718;2023-02-02T12:55:27;27.08;;;13.32;;
74233;SDS011;62591;55.764;37.718;2023-02-02T12:58:06;30.35;;;12.07;;
74233;SDS011;62591;55.764;37.718;2023-02-02T13:00:45;28.63;;;13.88;;
74233;SDS011;62591;55.764;37.718;2023-02-02T13:03:35;26.70;;;12.70;;
74233;SDS011;62591;55.764;37.718;2023-02-02T13:06:22;28.50;;;13.38;;
74233;SDS011;62591;55.764;37.718;2023-02-02T13:09:11;29.58;;;13.80;;
74233;SDS011;62591;55.764;37.718;2023-02-02T13:11:49;29.50;;;13.63;;
74233;SDS011;62591;55.764;37.718;2023-02-02T13:14:25;31.45;;;14.13;;
74233;SDS011;62591;55.764;37.718;2023-02-02T13:16:59;29.42;;;13.43;;
74233;SDS011;62591;55.764;37.718;2023-02-02T13:19:34;30.92;;;13.75;;
74233;SDS011;62591;55.764;37.718;2023-02-02T13:22:08;29.33;;;13.10;;
74233;SDS011;62591;55.764;37.718;2023-02-02T13:24:43;26.50;;;13.18;;
74233;SDS011;62591;55.764;37.718;2023-02-02T13:27:19;27.85;;;13.85;;
74233;SDS011;62591;55.764;37.718;2023-02-02T13:29:50;34.35;;;13.88;;
74233;SDS011;62591;55.764;37.718;2023-02-02T13:32:24;33.90;;;14.73;;
74233;SDS011;62591;55.764;37.718;2023-02-02T13:34:56;34.75;;;14.05;;
74233;SDS011;62591;55.764;37.718;2023-02-02T13:37:30;29.27;;;14.05;;
74233;SDS011;62591;55.764;37.718;2023-02-02T13:40:04;30.23;;;13.80;;
74233;SDS011;62591;55.764;37.718;2023-02-02T13:42:46;32.75;;;14.93;;
74233;SDS011;62591;55.764;37.718;2023-02-02T13:45:33;33.97;;;14.25;;
74233;SDS011;62591;55.764;37.718;2023-02-02T13:48:12;35.45;;;15.45;;
74233;SDS011;62591;55.764;37.718;2023-02-02T13:50:55;33.08;;;15.70;;
74233;SDS011;62591;55.764;37.718;2023-02-02T13:53:52;35.00;;;17.13;;
74233;SDS011;62591;55.764;37.718;2023-02-02T13:56:38;36.33;;;15.38;;
74233;SDS011;62591;55.764;37.718;2023-02-02T14:02:21;33.78;;;16.02;;
74233;SDS011;62591;55.764;37.718;2023-02-02T14:04:57;32.22;;;15.05;;
74233;SDS011;62591;55.764;37.718;2023-02-02T14:07:32;32.47;;;14.95;;
74233;SDS011;62591;55.764;37.718;2023-02-02T14:10:19;36.03;;;15.77;;
74233;SDS011;62591;55.764;37.718;2023-02-02T14:12:51;34.97;;;17.80;;
74233;SDS011;62591;55.764;37.718;2023-02-02T14:15:34;33.25;;;15.32;;
74233;SDS011;62591;55.764;37.718;2023-02-02T14:18:08;32.30;;;15.80;;
74233;SDS011;62591;55.764;37.718;2023-02-02T14:20:46;35.67;;;16.77;;
74233;SDS011;62591;55.764;37.718;2023-02-02T14:26:19;29.92;;;13.52;;
74233;SDS011;62591;55.764;37.718;2023-02-02T14:32:29;31.52;;;14.20;;
74233;SDS011;62591;55.764;37.718;2023-02-02T14:38:17;32.47;;;14.32;;
74233;SDS011;62591;55.764;37.718;2023-02-02T14:41:03;31.65;;;14.38;;
74233;SDS011;62591;55.764;37.718;2023-02-02T14:43:41;33.50;;;15.48;;
74233;SDS011;62591;55.764;37.718;2023-02-02T14:46:24;33.15;;;14.45;;
74233;SDS011;62591;55.764;37.718;2023-02-02T14:51:54;32.47;;;14.35;;
74233;SDS011;62591;55.764;37.718;2023-02-02T14:54:42;37.80;;;15.20;;
74233;SDS011;62591;55.764;37.718;2023-02-02T14:57:19;30.45;;;14.13;;
74233;SDS011;62591;55.764;37.718;2023-02-02T14:59:51;34.90;;;16.10;;
74233;SDS011;62591;55.764;37.718;2023-02-02T15:02:23;30.40;;;14.07;;
74233;SDS011;62591;55.764;37.718;2023-02-02T15:08:21;35.20;;;16.52;;
74233;SDS011;62591;55.764;37.718;2023-02-02T15:11:07;31.05;;;14.85;;
74233;SDS011;62591;55.764;37.718;2023-02-02T15:14:02;32.78;;;14.82;;
74233;SDS011;62591;55.764;37.718;2023-02-02T15:16:49;32.17;;;15.00;;
74233;SDS011;62591;55.764;37.718;2023-02-02T15:19:23;29.75;;;14.10;;
74233;SDS011;62591;55.764;37.718;2023-02-02T15:22:03;28.75;;;13.55;;